createdAt,value
2022-12-11T00:02:07.410Z,46.33
2022-12-11T00:04:37.249Z,43.87
2022-12-11T00:07:05.837Z,41.28
2022-12-11T00:09:36.016Z,40.70
2022-12-11T00:12:05.319Z,40.65
2022-12-11T00:14:33.901Z,42.97
2022-12-11T00:17:02.395Z,36.55
2022-12-11T00:19:30.956Z,38.37
2022-12-11T00:22:00.736Z,36.80
2022-12-11T00:24:30.126Z,38.45
2022-12-11T00:26:58.664Z,41.17
2022-12-11T00:29:27.026Z,38.30
2022-12-11T00:31:55.721Z,41.97
2022-12-11T00:34:26.999Z,38.17
2022-12-11T00:36:55.392Z,39.97
2022-12-11T00:39:25.159Z,41.90
2022-12-11T00:41:53.705Z,39.35
2022-12-11T00:44:22.587Z,43.23
2022-12-11T00:46:51.103Z,42.83
2022-12-11T00:49:19.685Z,44.58
2022-12-11T00:51:48.283Z,44.17
2022-12-11T00:54:16.850Z,44.10
2022-12-11T00:56:46.685Z,44.03
2022-12-11T00:59:15.210Z,43.45
2022-12-11T01:01:43.763Z,45.38
2022-12-11T01:04:12.255Z,43.73
2022-12-11T01:06:41.124Z,46.60
2022-12-11T01:09:26.965Z,43.70
2022-12-11T01:11:56.763Z,44.20
2022-12-11T01:14:25.236Z,39.33
2022-12-11T01:16:53.849Z,42.77
2022-12-11T01:19:22.298Z,44.17
2022-12-11T01:21:50.907Z,43.00
2022-12-11T01:24:19.591Z,48.20
2022-12-11T01:26:48.372Z,42.00
2022-12-11T01:29:20.648Z,43.03
2022-12-11T01:31:49.416Z,46.60
2022-12-11T01:34:17.917Z,47.07
2022-12-11T01:36:49.586Z,52.30
2022-12-11T01:39:18.100Z,52.00
2022-12-11T01:41:47.050Z,52.27
2022-12-11T01:45:07.557Z,55.70
2022-12-11T01:47:37.762Z,52.28
2022-12-11T01:50:07.168Z,56.78
2022-12-11T01:52:35.940Z,55.30
2022-12-11T01:55:04.537Z,50.13
2022-12-11T01:57:33.667Z,56.08
2022-12-11T02:00:02.130Z,55.70
2022-12-11T02:02:43.036Z,55.40
2022-12-11T02:05:11.928Z,57.92
2022-12-11T02:07:45.756Z,58.72
2022-12-11T02:10:14.906Z,55.57
2022-12-11T02:12:56.670Z,57.20
2022-12-11T02:15:33.236Z,59.13
2022-12-11T02:18:28.254Z,59.65
2022-12-11T02:21:04.946Z,57.93
2022-12-11T02:23:57.905Z,54.97
2022-12-11T02:26:49.404Z,57.40
2022-12-11T02:29:24.266Z,56.23
2022-12-11T02:31:59.042Z,57.97
2022-12-11T02:34:33.961Z,58.03
2022-12-11T02:37:07.393Z,54.40
2022-12-11T02:39:40.587Z,50.77
2022-12-11T02:42:11.277Z,55.08
2022-12-11T02:44:42.532Z,53.43
2022-12-11T02:47:15.423Z,52.03
2022-12-11T02:49:48.727Z,55.13
2022-12-11T02:52:21.621Z,55.08
2022-12-11T02:54:53.329Z,56.33
2022-12-11T02:57:31.030Z,54.15
2022-12-11T03:00:00.876Z,57.40
2022-12-11T03:02:29.383Z,54.22
2022-12-11T03:04:57.875Z,55.07
2022-12-11T03:07:31.050Z,50.70
2022-12-11T03:09:59.625Z,52.47
2022-12-11T03:12:31.615Z,50.20
2022-12-11T03:15:03.669Z,50.07
2022-12-11T03:17:37.071Z,49.47
2022-12-11T03:20:14.188Z,53.03
2022-12-11T03:22:50.108Z,54.20
2022-12-11T03:25:23.806Z,50.97
2022-12-11T03:27:58.633Z,51.10
2022-12-11T03:30:30.434Z,52.33
2022-12-11T03:33:04.748Z,53.67
2022-12-11T03:35:37.131Z,51.13
2022-12-11T03:38:11.522Z,48.87
2022-12-11T03:40:44.395Z,49.77
2022-12-11T03:43:13.254Z,52.47
2022-12-11T03:45:44.822Z,49.95
2022-12-11T03:48:14.903Z,47.73
2022-12-11T03:50:44.671Z,45.45
2022-12-11T03:53:13.864Z,43.03
2022-12-11T03:55:43.622Z,43.03
2022-12-11T03:58:12.208Z,44.55
2022-12-11T04:00:42.226Z,40.43
2022-12-11T04:03:17.907Z,39.88
2022-12-11T04:05:48.595Z,39.05
2022-12-11T04:10:46.245Z,37.20
2022-12-11T04:13:14.957Z,38.00
2022-12-11T04:15:43.768Z,35.60
2022-12-11T04:18:29.848Z,38.33
2022-12-11T04:21:15.997Z,36.42
2022-12-11T04:24:01.800Z,37.05
2022-12-11T04:26:30.184Z,35.27
2022-12-11T04:28:58.581Z,34.22
2022-12-11T04:31:29.957Z,33.97
2022-12-11T04:33:58.426Z,35.42
2022-12-11T04:36:26.798Z,35.93
2022-12-11T04:38:55.141Z,36.53
2022-12-11T04:41:23.557Z,36.33
2022-12-11T04:43:52.017Z,38.90
2022-12-11T04:46:23.409Z,36.53
2022-12-11T04:48:57.667Z,38.30
2022-12-11T04:51:26.447Z,37.03
2022-12-11T04:53:56.349Z,36.00
2022-12-11T04:56:24.792Z,36.72
2022-12-11T04:58:53.525Z,35.63
2022-12-11T05:01:24.012Z,35.90
2022-12-11T05:06:22.062Z,32.07
2022-12-11T05:08:50.409Z,31.90
2022-12-11T05:11:18.763Z,33.33
2022-12-11T05:13:47.882Z,33.03
2022-12-11T05:16:18.054Z,30.90
2022-12-11T05:18:49.386Z,32.17
2022-12-11T05:21:19.459Z,33.33
2022-12-11T05:23:47.940Z,33.25
2022-12-11T05:26:18.891Z,33.30
2022-12-11T05:28:48.155Z,32.67
2022-12-11T05:31:20.579Z,37.00
2022-12-11T05:33:51.237Z,33.53
2022-12-11T05:38:54.857Z,37.73
2022-12-11T05:41:25.483Z,34.67
2022-12-11T05:46:24.468Z,32.70
2022-12-11T05:48:55.727Z,35.53
2022-12-11T05:51:25.813Z,39.50
2022-12-11T05:53:55.482Z,38.17
2022-12-11T05:56:26.322Z,40.35
2022-12-11T05:58:56.128Z,37.93
2022-12-11T06:01:28.797Z,37.45
2022-12-11T06:03:58.438Z,42.23
2022-12-11T06:06:29.523Z,38.85
2022-12-11T06:08:59.934Z,40.83
2022-12-11T06:11:31.269Z,40.13
2022-12-11T06:14:00.524Z,42.40
2022-12-11T06:16:28.980Z,44.40
2022-12-11T06:18:58.567Z,41.43
2022-12-11T06:21:31.536Z,45.03
2022-12-11T06:24:02.776Z,44.07
2022-12-11T06:26:32.052Z,45.57
2022-12-11T06:29:00.701Z,41.53
2022-12-11T06:31:29.335Z,45.67
2022-12-11T06:33:57.717Z,45.50
2022-12-11T06:36:28.067Z,45.03
2022-12-11T06:38:56.669Z,43.20
2022-12-11T06:41:25.152Z,45.30
2022-12-11T06:43:53.465Z,44.97
2022-12-11T06:46:22.454Z,44.60
2022-12-11T06:48:51.115Z,41.53
2022-12-11T06:51:21.898Z,39.73
2022-12-11T06:53:55.796Z,45.53
2022-12-11T06:56:25.513Z,42.17
2022-12-11T06:58:54.033Z,43.13
2022-12-11T07:01:24.864Z,42.50
2022-12-11T07:03:54.984Z,43.53
2022-12-11T07:06:24.354Z,37.33
2022-12-11T07:08:54.542Z,42.10
2022-12-11T07:11:23.251Z,40.42
2022-12-11T07:13:54.761Z,42.97
2022-12-11T07:16:23.211Z,39.80
2022-12-11T07:18:52.637Z,45.57
2022-12-11T07:21:22.159Z,43.83
2022-12-11T07:23:51.447Z,39.50
2022-12-11T07:26:23.038Z,42.03
2022-12-11T07:28:51.826Z,38.83
2022-12-11T07:31:24.047Z,37.27
2022-12-11T07:33:55.994Z,36.43
2022-12-11T07:36:25.271Z,33.13
2022-12-11T07:38:53.987Z,33.47
2022-12-11T07:41:24.859Z,28.97
2022-12-11T07:43:56.376Z,29.60
2022-12-11T07:46:29.575Z,26.90
2022-12-11T07:48:57.950Z,26.20
2022-12-11T07:51:28.762Z,27.20
2022-12-11T07:53:59.692Z,26.43
2022-12-11T07:56:31.926Z,35.43
2022-12-11T07:59:01.418Z,27.17
2022-12-11T08:01:32.605Z,28.10
2022-12-11T08:04:00.951Z,30.77
2022-12-11T08:06:31.870Z,33.20
2022-12-11T08:09:02.001Z,33.83
2022-12-11T08:11:32.109Z,29.17
2022-12-11T08:14:01.069Z,29.58
2022-12-11T08:16:29.731Z,30.93
2022-12-11T08:18:58.973Z,30.33
2022-12-11T08:21:29.314Z,30.77
2022-12-11T08:23:58.341Z,24.25
2022-12-11T08:26:29.188Z,29.27
2022-12-11T08:28:59.624Z,29.77
2022-12-11T08:31:28.427Z,34.55
2022-12-11T08:33:58.364Z,34.78
2022-12-11T08:36:27.157Z,33.90
2022-12-11T08:38:56.889Z,34.63
2022-12-11T08:41:28.424Z,33.15
2022-12-11T08:44:00.453Z,33.77
2022-12-11T08:46:31.539Z,37.53
2022-12-11T08:49:00.694Z,42.20
2022-12-11T08:51:30.798Z,40.67
2022-12-11T08:54:01.852Z,42.23
2022-12-11T08:56:30.797Z,48.05
2022-12-11T08:59:04.195Z,46.13
2022-12-11T09:01:32.757Z,47.50
2022-12-11T09:04:01.128Z,46.60
2022-12-11T09:06:33.889Z,53.17
2022-12-11T09:09:03.279Z,57.37
2022-12-11T09:11:35.650Z,49.53
2022-12-11T09:14:08.120Z,47.00
2022-12-11T09:16:41.651Z,51.25
2022-12-11T09:19:14.375Z,54.28
2022-12-11T09:21:44.198Z,50.10
2022-12-11T09:24:14.006Z,47.13
2022-12-11T09:26:43.409Z,53.97
2022-12-11T09:29:14.497Z,51.40
2022-12-11T09:31:43.308Z,52.23
2022-12-11T09:34:14.749Z,49.93
2022-12-11T09:36:44.799Z,50.40
2022-12-11T09:39:15.021Z,51.10
2022-12-11T09:41:54.413Z,53.53
2022-12-11T09:44:35.403Z,55.33
2022-12-11T09:47:03.928Z,51.47
2022-12-11T09:49:39.824Z,51.23
2022-12-11T09:52:16.035Z,53.60
2022-12-11T09:54:50.727Z,58.90
2022-12-11T09:57:46.879Z,47.13
2022-12-11T10:00:28.068Z,54.40
2022-12-11T10:03:29.244Z,55.50
2022-12-11T10:06:07.543Z,55.43
2022-12-11T10:08:43.678Z,53.47
2022-12-11T10:11:44.714Z,54.40
2022-12-11T10:14:21.099Z,52.63
2022-12-11T10:16:55.903Z,52.35
2022-12-11T10:19:29.925Z,53.67
2022-12-11T10:21:59.945Z,54.20
2022-12-11T10:25:09.288Z,54.70
2022-12-11T10:27:31.329Z,50.95
2022-12-11T10:30:09.095Z,48.93
2022-12-11T10:32:51.802Z,59.70
2022-12-11T10:35:31.347Z,54.80
2022-12-11T10:38:13.474Z,57.67
2022-12-11T10:40:48.490Z,63.80
2022-12-11T10:43:17.021Z,63.13
2022-12-11T10:45:53.529Z,66.70
2022-12-11T10:48:23.782Z,61.50
2022-12-11T10:51:01.924Z,59.78
2022-12-11T10:53:31.748Z,61.35
2022-12-11T10:56:01.136Z,56.20
2022-12-11T10:58:34.023Z,59.33
2022-12-11T11:01:09.088Z,55.03
2022-12-11T11:03:55.605Z,58.23
2022-12-11T11:06:25.894Z,61.50
2022-12-11T11:08:56.651Z,60.95
2022-12-11T11:11:33.983Z,67.18
2022-12-11T11:14:20.578Z,59.63
2022-12-11T11:16:52.394Z,62.80
2022-12-11T11:19:26.600Z,58.47
2022-12-11T11:21:57.959Z,60.87
2022-12-11T11:24:31.732Z,60.25
2022-12-11T11:27:15.495Z,62.05
2022-12-11T11:29:46.681Z,58.80
2022-12-11T11:32:24.318Z,57.93
2022-12-11T11:34:54.168Z,59.45
2022-12-11T11:37:34.939Z,58.35
2022-12-11T11:40:12.356Z,58.47
2022-12-11T11:42:48.339Z,56.45
2022-12-11T11:45:23.049Z,54.73
2022-12-11T11:48:03.134Z,55.07
2022-12-11T11:50:37.913Z,57.77
2022-12-11T11:53:13.321Z,50.13
2022-12-11T11:55:50.886Z,52.13
2022-12-11T11:58:24.219Z,53.72
2022-12-11T12:00:55.174Z,55.57
2022-12-11T12:03:26.209Z,55.63
2022-12-11T12:06:04.165Z,53.80
2022-12-11T12:08:46.221Z,47.20
2022-12-11T12:11:26.053Z,56.53
2022-12-11T12:14:22.543Z,52.75
2022-12-11T12:17:07.759Z,53.60
2022-12-11T12:19:55.714Z,52.10
2022-12-11T12:22:52.057Z,53.67
2022-12-11T12:25:28.173Z,56.83
2022-12-11T12:28:07.186Z,47.80
2022-12-11T12:30:47.240Z,52.30
2022-12-11T12:33:30.033Z,54.25
2022-12-11T12:36:08.943Z,51.20
2022-12-11T12:38:52.483Z,57.25
2022-12-11T12:41:28.113Z,53.17
2022-12-11T12:44:10.842Z,52.50
2022-12-11T12:46:51.913Z,51.78
2022-12-11T12:49:35.880Z,58.00
2022-12-11T12:52:06.716Z,60.20
2022-12-11T12:54:37.723Z,55.63
2022-12-11T12:57:06.478Z,56.50
2022-12-11T12:59:34.811Z,54.97
2022-12-11T13:02:06.698Z,56.78
2022-12-11T13:04:59.192Z,54.97
2022-12-11T13:07:31.214Z,56.15
2022-12-11T13:10:09.604Z,51.47
2022-12-11T13:12:46.684Z,50.95
2022-12-11T13:15:40.804Z,53.80
2022-12-11T13:18:36.383Z,55.72
2022-12-11T13:21:27.127Z,53.95
2022-12-11T13:23:55.994Z,51.47
2022-12-11T13:26:34.686Z,55.60
2022-12-11T13:29:03.092Z,54.50
2022-12-11T13:31:38.075Z,54.40
2022-12-11T13:34:18.496Z,49.35
2022-12-11T13:36:51.805Z,45.95
2022-12-11T13:39:24.528Z,49.53
2022-12-11T13:41:59.357Z,51.83
2022-12-11T13:44:32.881Z,51.73
2022-12-11T13:47:04.415Z,47.63
2022-12-11T13:49:38.529Z,37.95
2022-12-11T13:52:08.335Z,48.92
2022-12-11T13:54:37.589Z,46.58
2022-12-11T13:57:18.585Z,45.90
2022-12-11T13:59:51.016Z,47.60
2022-12-11T14:02:24.530Z,43.10
2022-12-11T14:04:57.808Z,45.05
2022-12-11T14:07:30.282Z,49.80
2022-12-11T14:10:04.366Z,45.60
2022-12-11T14:12:34.389Z,47.15
2022-12-11T14:15:05.733Z,47.80
2022-12-11T14:17:36.600Z,44.85
2022-12-11T14:20:08.445Z,45.78
2022-12-11T14:22:37.041Z,45.65
2022-12-11T14:25:23.391Z,47.08
2022-12-11T14:27:56.585Z,46.08
2022-12-11T14:30:28.862Z,43.60
2022-12-11T14:33:00.543Z,45.08
2022-12-11T14:35:38.399Z,42.83
2022-12-11T14:38:16.257Z,45.10
2022-12-11T14:40:51.518Z,42.35
2022-12-11T14:43:26.805Z,44.20
2022-12-11T14:46:00.518Z,43.05
2022-12-11T14:48:33.500Z,44.97
2022-12-11T14:51:06.836Z,47.27
2022-12-11T14:53:39.214Z,46.88
2022-12-11T14:56:15.403Z,50.20
2022-12-11T14:58:55.304Z,52.20
2022-12-11T15:01:27.787Z,47.67
2022-12-11T15:04:08.682Z,45.00
2022-12-11T15:06:45.904Z,47.05
2022-12-11T15:09:21.388Z,48.72
2022-12-11T15:11:51.607Z,43.77
2022-12-11T15:14:24.149Z,44.92
2022-12-11T15:16:55.450Z,43.75
2022-12-11T15:19:29.681Z,40.47
2022-12-11T15:22:05.029Z,41.53
2022-12-11T15:24:39.308Z,38.03
2022-12-11T15:27:08.406Z,41.30
2022-12-11T15:29:43.449Z,40.20
2022-12-11T15:32:20.263Z,39.17
2022-12-11T15:34:51.223Z,38.55
2022-12-11T15:37:25.491Z,36.35
2022-12-11T15:39:57.475Z,37.08
2022-12-11T15:42:32.583Z,37.55
2022-12-11T15:45:02.991Z,34.70
2022-12-11T15:47:32.901Z,34.58
2022-12-11T15:50:08.661Z,40.03
2022-12-11T15:52:37.060Z,36.57
2022-12-11T15:55:06.374Z,34.80
2022-12-11T15:57:35.451Z,36.47
2022-12-11T16:00:07.469Z,35.83
2022-12-11T16:02:36.007Z,35.42
2022-12-11T16:05:04.859Z,40.05
2022-12-11T16:07:33.349Z,44.00
2022-12-11T16:10:02.198Z,37.93
2022-12-11T16:12:30.634Z,36.77
2022-12-11T16:14:59.032Z,38.15
2022-12-11T16:17:29.057Z,41.25
2022-12-11T16:19:57.599Z,37.95
2022-12-11T16:22:25.957Z,36.27
2022-12-11T16:24:55.829Z,37.15
2022-12-11T16:27:24.910Z,37.20
2022-12-11T16:29:53.481Z,38.03
2022-12-11T16:32:21.995Z,36.00
2022-12-11T16:34:51.702Z,30.20
2022-12-11T16:37:20.204Z,26.90
2022-12-11T16:39:48.730Z,22.83
2022-12-11T16:42:17.027Z,27.53
2022-12-11T16:44:45.459Z,24.48
2022-12-11T16:47:13.922Z,25.52
2022-12-11T16:49:43.172Z,24.33
2022-12-11T16:52:15.352Z,24.10
2022-12-11T16:54:47.649Z,23.87
2022-12-11T16:57:15.979Z,24.60
2022-12-11T16:59:44.330Z,25.23
2022-12-11T17:02:13.276Z,25.17
2022-12-11T17:04:41.986Z,25.73
2022-12-11T17:07:10.434Z,29.03
2022-12-11T17:09:40.382Z,28.67
2022-12-11T17:12:10.071Z,31.60
2022-12-11T17:14:38.522Z,41.63
2022-12-11T17:17:07.115Z,44.87
2022-12-11T17:19:35.493Z,50.33
2022-12-11T17:22:04.632Z,54.97
2022-12-11T17:24:33.937Z,48.10
2022-12-11T17:27:03.663Z,55.00
2022-12-11T17:29:32.596Z,54.97
2022-12-11T17:32:03.176Z,55.20
2022-12-11T17:34:37.871Z,55.67
2022-12-11T17:37:07.228Z,52.47
2022-12-11T17:39:35.592Z,53.97
2022-12-11T17:42:05.665Z,55.97
2022-12-11T17:44:34.535Z,51.08
2022-12-11T17:47:07.681Z,45.33
2022-12-11T17:49:39.481Z,51.60
2022-12-11T17:52:08.127Z,40.20
2022-12-11T17:54:36.512Z,40.23
2022-12-11T17:57:06.823Z,37.67
2022-12-11T17:59:35.335Z,38.35
2022-12-11T18:02:03.721Z,38.67
2022-12-11T18:04:32.255Z,37.53
2022-12-11T18:07:00.669Z,34.07
2022-12-11T18:09:29.130Z,37.25
2022-12-11T18:11:57.776Z,42.87
2022-12-11T18:14:27.603Z,51.67
2022-12-11T18:16:55.969Z,58.13
2022-12-11T18:19:27.192Z,61.93
2022-12-11T18:21:56.664Z,60.23
2022-12-11T18:24:25.895Z,60.57
2022-12-11T18:26:54.513Z,64.37
2022-12-11T18:29:22.890Z,60.87
2022-12-11T18:31:52.856Z,63.23
2022-12-11T18:34:21.458Z,60.70
2022-12-11T18:36:49.796Z,60.70
2022-12-11T18:39:20.649Z,60.73
2022-12-11T18:42:03.434Z,61.73
2022-12-11T18:44:37.844Z,59.93
2022-12-11T18:47:07.899Z,60.97
2022-12-11T18:49:36.486Z,60.88
2022-12-11T18:52:05.585Z,63.93
2022-12-11T18:54:34.087Z,60.67
2022-12-11T18:57:02.404Z,65.03
2022-12-11T18:59:30.827Z,58.50
2022-12-11T19:01:59.286Z,63.10
2022-12-11T19:04:29.192Z,66.73
2022-12-11T19:06:57.914Z,60.78
2022-12-11T19:09:26.558Z,62.57
2022-12-11T19:11:55.846Z,63.37
2022-12-11T19:14:24.598Z,60.50
2022-12-11T19:16:53.538Z,60.10
2022-12-11T19:19:23.242Z,61.37
2022-12-11T19:21:53.092Z,57.13
2022-12-11T19:24:23.827Z,59.88
2022-12-11T19:26:53.085Z,61.93
2022-12-11T19:29:27.782Z,64.17
2022-12-11T19:31:56.773Z,57.23
2022-12-11T19:34:26.045Z,57.97
2022-12-11T19:36:57.302Z,60.40
2022-12-11T19:39:25.671Z,57.03
2022-12-11T19:41:53.968Z,66.57
2022-12-11T19:44:23.013Z,59.23
2022-12-11T19:46:51.554Z,56.27
2022-12-11T19:49:20.063Z,57.93
2022-12-11T19:51:48.685Z,60.43
2022-12-11T19:54:19.817Z,57.47
2022-12-11T19:56:48.487Z,61.63
2022-12-11T19:59:18.104Z,62.13
2022-12-11T20:01:49.397Z,62.87
2022-12-11T20:04:19.967Z,61.03
2022-12-11T20:09:22.295Z,57.17
2022-12-11T20:11:50.777Z,62.73
2022-12-11T20:14:23.453Z,61.67
2022-12-11T20:17:12.805Z,61.77
2022-12-11T20:19:43.071Z,58.77
2022-12-11T20:22:11.736Z,61.90
2022-12-11T20:24:41.875Z,61.97
2022-12-11T20:27:12.379Z,62.75
2022-12-11T20:29:40.930Z,60.97
2022-12-11T20:32:12.275Z,61.57
2022-12-11T20:34:41.255Z,61.83
2022-12-11T20:37:09.735Z,62.10
2022-12-11T20:39:40.102Z,59.03
2022-12-11T20:42:11.118Z,57.85
2022-12-11T20:44:42.798Z,61.80
2022-12-11T20:47:15.700Z,61.67
2022-12-11T20:49:44.065Z,63.07
2022-12-11T20:52:12.621Z,68.47
2022-12-11T20:54:42.465Z,59.50
2022-12-11T20:57:11.333Z,62.17
2022-12-11T20:59:40.136Z,62.47
2022-12-11T21:02:09.505Z,57.47
2022-12-11T21:04:41.060Z,58.23
2022-12-11T21:07:10.564Z,58.27
2022-12-11T21:09:41.017Z,61.93
2022-12-11T21:14:39.206Z,60.77
2022-12-11T21:17:07.626Z,62.03
2022-12-11T21:19:36.006Z,62.43
2022-12-11T21:22:04.682Z,59.17
2022-12-11T21:24:33.109Z,57.53
2022-12-11T21:27:02.820Z,58.87
2022-12-11T21:29:31.307Z,59.35
2022-12-11T21:32:02.781Z,61.57
2022-12-11T21:34:31.246Z,62.03
2022-12-11T21:36:59.900Z,69.70
2022-12-11T21:39:29.548Z,62.73
2022-12-11T21:42:00.511Z,61.20
2022-12-11T21:47:19.872Z,65.32
2022-12-11T21:49:48.516Z,68.00
2022-12-11T21:52:16.946Z,65.77
2022-12-11T21:54:45.376Z,68.90
2022-12-11T21:57:14.126Z,63.23
2022-12-11T21:59:43.921Z,65.77
2022-12-11T22:02:12.739Z,58.83
2022-12-11T22:04:42.031Z,69.23
2022-12-11T22:07:10.391Z,65.70
2022-12-11T22:09:38.799Z,67.60
2022-12-11T22:12:07.764Z,59.13
2022-12-11T22:14:36.875Z,67.13
2022-12-11T22:17:06.831Z,64.57
2022-12-11T22:19:35.159Z,67.50
2022-12-11T22:22:03.588Z,62.83
2022-12-11T22:24:32.221Z,64.20
2022-12-11T22:27:01.016Z,66.57
2022-12-11T22:29:29.752Z,63.87
2022-12-11T22:32:00.788Z,64.47
2022-12-11T22:34:30.557Z,66.70
2022-12-11T22:36:58.832Z,63.00
2022-12-11T22:39:27.233Z,63.13
2022-12-11T22:41:55.551Z,70.90
2022-12-11T22:44:24.217Z,61.87
2022-12-11T22:46:52.788Z,65.60
2022-12-11T22:49:23.138Z,59.47
2022-12-11T22:51:53.026Z,63.78
2022-12-11T22:54:24.733Z,60.22
2022-12-11T22:56:53.226Z,60.03
2022-12-11T22:59:21.523Z,63.83
2022-12-11T23:01:49.971Z,58.07
2022-12-11T23:04:18.476Z,67.23
2022-12-11T23:06:46.904Z,55.93
2022-12-11T23:09:16.758Z,57.70
2022-12-11T23:11:45.911Z,57.33
2022-12-11T23:14:19.295Z,57.23
2022-12-11T23:16:49.682Z,63.30
2022-12-11T23:19:25.243Z,58.20
2022-12-11T23:21:54.124Z,56.60
2022-12-11T23:24:24.911Z,57.37
2022-12-11T23:26:53.349Z,65.22
2022-12-11T23:29:21.775Z,59.13
2022-12-11T23:31:50.329Z,53.00
2022-12-11T23:34:18.686Z,53.83
2022-12-11T23:36:47.276Z,52.87
2022-12-11T23:39:15.712Z,55.27
2022-12-11T23:41:45.621Z,54.50
2022-12-11T23:44:14.048Z,55.78
2022-12-11T23:46:44.925Z,55.63
2022-12-11T23:49:13.390Z,55.40
2022-12-11T23:51:43.691Z,52.58
2022-12-11T23:54:12.057Z,52.67
2022-12-11T23:56:40.557Z,52.93
2022-12-11T23:59:13.317Z,52.17
